Tiempo atmosférico en la estación meteorológica de La Póveda de Soria, Barriomartín, Soria (1260 m.)



Fecha
DESCASC
Temp. máxima en grados centígrados (hora)
DESCASC
Temp. mínima en grados centígrados (hora)
DESCASC
Temp. media en grados centígrados
DESCASC
Racha de viento máxima en m/sg (hora)
DESCASC
Velocidad máxima media en intervalos de 10 minutos(hora)
DESCASC
Precipitaciones diarias en mm
DESCASC
Precipitaciones de 00:00 a 06:00 en mm
DESCASC
Precipitaciones de 06:00 a 12:00 en mm
DESCASC
Precipitaciones de 12:00 a 18:00 en mm
DESCASC
Precipitaciones de 18:00 a 24:00 en mm
DESCASC
25-04-2019 8.8 (17:20) 1.2 (09:10) 5 15.83 (16:10) 8.61 (17:40) 15.8 10.2 2.2 1.8 1.6
24-04-2019 8 (17:40) 0.3 (11:10) 4.2 16.94 (18:00) 8.61 (17:50) 27.2 0 0.8 8.2 18.2
23-04-2019 8.4 (16:40) 1.8 (22:10) 5.1 14.44 (20:10) 6.94 (16:50) 3.4 0 0.6 1.8 1
22-04-2019 12.6 (15:20) 2.5 (00:00) 7.6 7.78 (11:50) 4.44 (12:20) 0.2 0.2 0 0 0
21-04-2019 7.2 (18:10) 4.1 (00:00) 5.6 6.67 (18:50) 3.33 (15:00) 0.4 0.2 0.2 0 0
20-04-2019 14.6 (14:30) 4.6 (00:00) 9.6 9.17 (17:00) 4.72 (17:00) 0 0 0 0 0
19-04-2019 10.7 (17:30) 5.4 (00:00) 8 15.28 (20:40) 8.06 (20:30) 12.2 8 4.2 0 0
18-04-2019 10 (00:00) 6.1 (00:00) 8 12.22 (22:40) 6.67 (22:30) 31 0.8 20.8 1 8.4
17-04-2019 18 (16:00) 5.1 (00:00) 11.5 11.67 (15:00) 6.39 (14:40) 0 0 0 0 0
16-04-2019 14.6 (16:10) 2.8 (00:00) 8.7 8.89 (16:40) 4.72 (16:40) 0 0 0 0 0
15-04-2019 18.8 (15:10) 5.3 (00:00) 12 15.28 (16:30) 8.61 (16:40) 1 0 0 0 1
14-04-2019 17.5 (16:30) 3 (00:00) 10.3 8.33 (12:00) 5.28 (12:10) 0 0 0 0 0
13-04-2019 17.9 (18:20) 0.4 (00:00) 9.1 7.22 (18:50) 4.72 (18:50) 0 0 0 0 0
12-04-2019 11.6 (15:50) 1.3 (00:00) 6.5 13.06 (08:30) 8.61 (09:50) 0 0 0 0 0
11-04-2019 7.8 (16:00) 1.6 (00:00) 4.7 13.06 (10:40) 8.89 (10:40) 0.4 0 0.2 0 0.2
10-04-2019 8.5 (16:30) -0.9 (-00:0) 3.8 12.5 (23:40) 7.78 (23:50) 1.2 1.2 0 0 0
09-04-2019 7.8 (16:20) 1 (00:00) 4.4 12.5 (21:00) 5.28 (20:50) 0.6 0 0 0 0.6
08-04-2019 13.5 (16:20) 1.6 (00:00) 7.6 11.11 (12:10) 5.56 (12:50) 1.2 0.6 0.4 0.2 0
07-04-2019 8 (16:20) -2.2 (-00:0) 2.9 9.44 (16:00) 6.11 (15:30) 2.8 0 2.6 0.2 0
06-04-2019 5.9 (16:20) -2.5 (-00:0) 1.7 11.11 (16:30) 5 (14:10) 1.6 0 0.2 1.2 0.2
05-04-2019 5.8 (15:30) -1 (-00:0) 2.4 10.28 (15:40) 6.11 (15:50) 1.6 0 0.8 0.6 0.2
04-04-2019 8.9 (18:00) -5.2 (-00:0) 1.8 10.83 (15:30) 6.11 (17:40) 0 0 0 0 0
03-04-2019 5.3 (14:00) -2.5 (23:50) 1.4 11.39 (14:30) 7.5 (18:10) 0.4 0 0 0.4 0
02-04-2019 9.9 (11:30) 1.4 (00:00) 5.6 6.39 (15:50) 4.17 (16:00) 5.4 0 0 4.6 0.8
01-04-2019 10 (17:00) 2.5 (00:00) 6.3 8.61 (17:40) 4.72 (17:40) 2.4 1 0.2 1 0.2
31-03-2019 12.8 (13:50) -0.5 (-00:0) 6.2 7.5 (17:50) 4.44 (14:00) 3 0 0 0 3
30-03-2019 14 (14:40) -2.8 (-00:0) 5.6 7.5 (13:30) 4.17 (17:40) 0 0 0 0 0
29-03-2019 14.4 (15:50) -2.8 (-00:0) 5.8 9.72 (14:20) 5.56 (13:00) 0 0 0 0 0
28-03-2019 13.7 (14:30) 1.5 (00:00) 7.6 13.61 (00:40) 8.61 (00:40) 0 0 0 0 0
27-03-2019 12.5 (15:10) 0.5 (00:00) 6.5 15.28 (19:50) 9.72 (19:40) 0 0 0 0 0

Gráficas

Temp. máximas Temp. mínimas Temp. medias Precipitaciones Rachas de viento máximas Velocidades máximas media en intervalos de 10 minutos

Datos horarios

Fecha y hora oficial Temperatura (ºC) Velocidad del viento (km/h) Dirección del viento Racha (km/h) Dirección de racha Precipitación (mm) Presión (hPa) Tendencia (hPa) Humedad (%)
2019-04-25 23:00:00 3.2 16 Oeste 50 Sudoeste 0.4 -- -- 86
2019-04-25 22:00:00 2.7 12 Sudoeste 39 Oeste 1.2 -- -- 88
2019-04-25 21:00:00 4.4 9 Oeste 28 Oeste 0 -- -- 75
2019-04-25 20:00:00 5.1 9 Sudoeste 43 Oeste 0 -- -- 77
2019-04-25 19:00:00 6 22 Sudoeste 47 Sudoeste 0 -- -- 70
2019-04-25 18:00:00 6.9 21 Oeste 56 Sudoeste 0.4 -- -- 71
2019-04-25 17:00:00 8.3 28 Sudoeste 57 Sudoeste 0 -- -- 65
2019-04-25 16:00:00 7.6 29 Sudoeste 56 Sudoeste 0 -- -- 73
2019-04-25 15:00:00 6.2 17 Sudoeste 41 Oeste 0.4 -- -- 86
2019-04-25 14:00:00 5.6 13 Sudoeste 38 Sudoeste 1 -- -- 84
2019-04-25 13:00:00 5.4 18 Sudoeste 39 Oeste 0 -- -- 83
2019-04-25 12:00:00 4.4 12 Sudoeste 35 Sudoeste 0 -- -- 87
2019-04-25 11:00:00 3.7 14 Sudoeste 33 Sudoeste 0.2 -- -- 91
2019-04-25 10:00:00 2 15 Sudoeste 27 Sudoeste 1.4 -- -- 94
2019-04-25 09:00:00 1.6 6 Sur 29 Oeste 0.4 -- -- 90
2019-04-25 08:00:00 2.3 18 Oeste 46 Oeste 0 -- -- 84
2019-04-25 07:00:00 1.6 19 Sudoeste 40 Sudoeste 0.2 -- -- 87
2019-04-25 06:00:00 2.5 20 Oeste 45 Oeste 0.2 -- -- 91
2019-04-25 05:00:00 2.9 18 Oeste 41 Sudoeste 0.6 -- -- 89
2019-04-25 04:00:00 3.6 12 Sudoeste 31 Sudoeste -- -- -- 95
2019-04-25 03:00:00 3.1 15 Sudoeste 39 Oeste 2.2 -- -- 93
2019-04-25 02:00:00 4.2 15 Oeste 35 Sudoeste 5 -- -- 93
2019-04-25 01:00:00 5.4 13 Sur 44 Sudoeste 1.4 -- -- 95
2019-04-25 00:00:00 5.6 19 Sudoeste 44 Sudoeste 0 -- -- 94
2019-04-24 23:00:00 5.2 21 Sudoeste 46 Sudoeste 0.8 -- -- 95
2019-04-24 22:00:00 4.2 15 Sudoeste 56 Sudoeste 4 -- -- 95
2019-04-24 21:00:00 5 19 Oeste 55 Oeste 8 -- -- 92
2019-04-24 20:00:00 6.4 19 Sur 56 Sudoeste 4.6 -- -- 94
2019-04-24 19:00:00 7.3 23 Sur 49 Sudoeste 0.8 -- -- 93
2019-04-24 18:00:00 7.5 30 Sudoeste 61 Sur 0.2 -- -- 89
2019-04-24 17:00:00 7 19 Sur 44 Sudoeste 0 -- -- 91
2019-04-24 16:00:00 4.5 23 Sudoeste 45 Sudoeste 1.8 -- -- 96
2019-04-24 15:00:00 3.4 18 Sur 37 Sur 2.2 -- -- 96
2019-04-24 14:00:00 2 12 Sudoeste 40 Sur 2.4 -- -- 96
2019-04-24 13:00:00 0.9 10 Sur 22 Sur 1.6 -- -- 95
2019-04-24 12:00:00 0.5 10 Sur 26 Sur 0.2 -- -- 96
2019-04-24 11:00:00 0.4 14 Sur 43 Sudoeste 0.4 -- -- 94
2019-04-24 10:00:00 1.4 22 Sur 42 Sur 0.2 -- -- 90
2019-04-24 09:00:00 1.2 15 Sur 33 Sudoeste 0 -- -- 91
2019-04-24 08:00:00 0.9 18 Sudoeste 34 Sudoeste 0 -- -- 89
2019-04-24 07:00:00 0.7 20 Sudoeste 37 Sudoeste 0 -- -- 90
2019-04-24 06:00:00 0.8 13 Sudoeste 35 Oeste 0 -- -- 90
2019-04-24 05:00:00 1.2 6 Sudoeste 31 Sudoeste 0 -- -- 88
2019-04-24 04:00:00 1.6 9 Sur 22 Oeste 0 -- -- 90
2019-04-24 03:00:00 1.9 8 Sur 24 Sur 0 -- -- 91
2019-04-24 02:00:00 2 7 Sur 17 Sudoeste 0 -- -- 93
2019-04-24 01:00:00 2 9 Sudoeste 14 Sudoeste 0 -- -- 92
2019-04-24 00:00:00 2.1 8 Sudoeste 21 Sudoeste 0 -- -- 92
2019-04-23 23:00:00 2.2 13 Sudeste 19 Sudeste 0.2 -- -- 92
2019-04-23 22:00:00 2 0 Calma 13 Oeste 0 -- -- 89
2019-04-23 21:00:00 2.3 9 Oeste 52 Sudoeste 0.4 -- -- 88
2019-04-23 20:00:00 5.3 14 Sudoeste 46 Oeste 0.2 -- -- 76
2019-04-23 19:00:00 6.5 16 Sudoeste 32 Sudoeste 0.2 -- -- 80
2019-04-23 18:00:00 6.1 18 Sudoeste 39 Sudoeste 0.2 -- -- 83
2019-04-23 17:00:00 7.6 22 Sudoeste 49 Sudoeste 0 -- -- 78
2019-04-23 16:00:00 7.5 18 Sur 36 Sur 0 -- -- 85
2019-04-23 15:00:00 6.5 19 Sudoeste 38 Sur 0.6 -- -- 91
2019-04-23 14:00:00 7.5 15 Sur 33 Sur 0.4 -- -- 96
2019-04-23 13:00:00 6.6 18 Sur 30 Sur 0.6 -- -- 95
2019-04-23 12:00:00 6.7 12 Sur 23 Sur 0.6 -- -- 91
2019-04-23 11:00:00 7.2 11 Sur 23 Sur 0 -- -- 87
2019-04-23 10:00:00 6.9 11 Sudeste 20 Sur 0 -- -- 92
2019-04-23 09:00:00 6 9 Sudeste 14 Sur 0 -- -- 96
2019-04-23 08:00:00 5.6 7 Sur 13 Sudeste 0 -- -- 95
2019-04-23 07:00:00 5.5 4 Sur 10 Sur 0 -- -- 95
2019-04-23 06:00:00 5.2 7 Sur 14 Sur 0 -- -- 95
2019-04-23 05:00:00 5.1 10 Sur 16 Sur 0 -- -- 93
2019-04-23 04:00:00 4.7 0 Calma 4 Sur 0 -- -- 88
2019-04-23 03:00:00 6.2 2 Sur 3 Sudeste 0 -- -- 87
2019-04-23 02:00:00 6.7 2 Sur 13 Sur 0 -- -- 85
2019-04-23 01:00:00 7.6 7 Sur 19 Sur 0 -- -- 83
2019-04-23 00:00:00 8.3 8 Sudeste 12 Sudeste 0 -- -- 79
2019-04-22 23:00:00 8.9 2 Sur 13 Oeste 0 -- -- 76
2019-04-22 22:00:00 9.5 7 Oeste 18 Sudoeste 0 -- -- 73
2019-04-22 21:00:00 10 5 Sur 13 Sur 0 -- -- 70
2019-04-22 20:00:00 11.5 5 Sudoeste 19 Sudoeste 0 -- -- 63
2019-04-22 19:00:00 11.9 10 Sur 18 Sudoeste 0 -- -- 61
2019-04-22 18:00:00 10.7 10 Sur 20 Sur 0 -- -- 67
2019-04-22 17:00:00 11.5 11 Sur 26 Sur 0 -- -- 63
2019-04-22 16:00:00 12.6 12 Sur 27 Sur 0 -- -- 61
2019-04-22 15:00:00 12.1 14 Sur 24 Sudeste 0 -- -- 63
2019-04-22 14:00:00 12.4 12 Sur 28 Sur 0 -- -- 60
2019-04-22 13:00:00 11.4 13 Sur 26 Sudeste 0 -- -- 63
2019-04-22 12:00:00 10.9 15 Sur 28 Sudeste 0 -- -- 60
2019-04-22 11:00:00 10.3 12 Sur 23 Sudeste 0 -- -- 57
2019-04-22 10:00:00 8.9 4 Sudeste 9 Sur 0 -- -- 64
2019-04-22 09:00:00 5.5 5 Norte 10 Norte 0 -- -- 88
2019-04-22 08:00:00 2.6 7 Norte 10 Norte 0 -- -- 92
2019-04-22 07:00:00 3.4 5 Norte 9 Norte 0 -- -- 90
2019-04-22 06:00:00 5 4 Norte 8 Norte 0 -- -- 86
2019-04-22 05:00:00 5.2 3 Norte 10 Norte 0 -- -- 86
2019-04-22 04:00:00 5 6 Norte 14 Norte 0 -- -- 87
2019-04-22 03:00:00 4.9 7 Norte 22 Noroeste 0 -- -- 85
2019-04-22 02:00:00 5 4 Norte 18 Noroeste 0 -- -- 85
2019-04-22 01:00:00 5.1 5 Norte 8 Norte 0.2 -- -- 87
2019-04-22 00:00:00 5.5 3 Norte 7 Norte 0 -- -- 82
2019-04-21 23:00:00 5.8 2 Noroeste 6 Norte 0 -- -- 81
2019-04-21 22:00:00 6.1 4 Norte 9 Nordeste 0 -- -- 77
2019-04-21 21:00:00 6.2 5 Norte 14 Norte 0 -- -- 78
2019-04-21 20:00:00 6.4 3 Nordeste 16 Nordeste 0 -- -- 76
2019-04-21 19:00:00 6.7 9 Nordeste 24 Nordeste 0 -- -- 74
2019-04-21 18:00:00 7 4 Norte 15 Nordeste 0 -- -- 77
2019-04-21 17:00:00 6.7 8 Este 18 Nordeste 0 -- -- 76
2019-04-21 16:00:00 6.5 10 Este 17 Este 0 -- -- 77
2019-04-21 15:00:00 6.6 12 Nordeste 20 Nordeste 0 -- -- 79
2019-04-21 14:00:00 5.9 9 Nordeste 18 Nordeste 0 -- -- 81
2019-04-21 13:00:00 5.8 10 Nordeste 19 Norte 0 -- -- 80
2019-04-21 12:00:00 6.4 8 Nordeste 19 Nordeste 0 -- -- 77
2019-04-21 11:00:00 5.7 8 Nordeste 15 Nordeste 0 -- -- 83
2019-04-21 10:00:00 4.6 6 Norte 12 Nordeste 0 -- -- 91
2019-04-21 09:00:00 4.3 5 Nordeste 13 Este 0 -- -- 92
2019-04-21 08:00:00 4.2 7 Nordeste 15 Nordeste 0.2 -- -- 90
2019-04-21 07:00:00 4.2 8 Este 20 Este 0 -- -- 89
2019-04-21 06:00:00 4.7 0 Calma 13 Sudeste 0 -- -- 89
2019-04-21 05:00:00 5.3 2 Sur 6 Sur 0 -- -- 88
2019-04-21 04:00:00 5.2 0 Calma 3 Oeste 0 -- -- 89
2019-04-21 03:00:00 5.4 2 Oeste 6 Sudeste 0 -- -- 86
2019-04-21 02:00:00 5.7 3 Sudeste 6 Sur 0 -- -- 86
2019-04-21 01:00:00 6.5 4 Sudoeste 8 Sur 0.2 -- -- 81
2019-04-21 00:00:00 7 2 Sur 19 Sur 0 -- -- 73
2019-04-20 23:00:00 8.5 10 Sur 21 Sur 0 -- -- 65
2019-04-20 22:00:00 9.7 3 Nordeste 9 Nordeste 0 -- -- 54
2019-04-20 21:00:00 10.7 3 Sudeste 21 Este 0 -- -- 51
2019-04-20 20:00:00 11.9 14 Este 25 Este 0 -- -- 46
2019-04-20 19:00:00 13.5 13 Este 26 Nordeste 0 -- -- 39
2019-04-20 18:00:00 13.5 14 Este 29 Este 0 -- -- 49
2019-04-20 17:00:00 13.8 17 Sudeste 33 Sudeste 0 -- -- 52
2019-04-20 16:00:00 14.2 14 Este 26 Este 0 -- -- 52
2019-04-20 15:00:00 14.1 9 Este 26 Este 0 -- -- 53
2019-04-20 14:00:00 14.3 10 Nordeste 27 Este 0 -- -- 53
2019-04-20 13:00:00 13.5 11 Este 21 Este 0 -- -- 50
2019-04-20 12:00:00 12.8 13 Nordeste 25 Este 0 -- -- 46
2019-04-20 11:00:00 11.9 9 Este 21 Este 0 -- -- 52
2019-04-20 10:00:00 10.5 3 Norte 13 Nordeste 0 -- -- 57
2019-04-20 09:00:00 8.6 3 Norte 12 Noroeste 0 -- -- 60
2019-04-20 08:00:00 5.6 4 Noroeste 12 Norte 0 -- -- 70
2019-04-20 07:00:00 5.3 5 Noroeste 12 Noroeste 0 -- -- 74
2019-04-20 06:00:00 5 6 Norte 15 Norte 0 -- -- 78
2019-04-20 05:00:00 5 11 Norte 16 Norte 0 -- -- 83
2019-04-20 04:00:00 6.6 5 Norte -- -- 0 -- -- 77
2019-04-20 03:00:00 7.2 6 Noroeste 16 Oeste 0 -- -- 73
2019-04-20 02:00:00 7.9 0 Calma 16 Noroeste 0 -- -- 69
2019-04-20 01:00:00 8 10 Noroeste 18 Sudoeste 0 -- -- 70
2019-04-20 00:00:00 8.7 7 Sur 23 Sudeste 0 -- -- 70
2019-04-19 23:00:00 8.9 7 Sudeste 20 Sudeste 0 -- -- 73
2019-04-19 22:00:00 9.1 11 Sudeste 43 Nordeste 0 -- -- 73
2019-04-19 21:00:00 9.3 24 Nordeste 55 Nordeste 0 -- -- 74
2019-04-19 20:00:00 9.6 22 Nordeste 45 Este 0 -- -- 73
2019-04-19 19:00:00 9.9 10 Este 33 Este 0 -- -- 74
2019-04-19 18:00:00 10.2 12 Nordeste 36 Nordeste 0 -- -- 73
2019-04-19 17:00:00 10.3 7 Nordeste 33 Este 0 -- -- 73
2019-04-19 16:00:00 10 13 Este 45 Este 0 -- -- 75
2019-04-19 15:00:00 9.4 13 Sudeste 52 Este 0 -- -- 76
2019-04-19 14:00:00 8.9 24 Este 50 Este 0 -- -- 78
2019-04-19 13:00:00 7.2 17 Este 40 Este 0 -- -- 87
2019-04-19 12:00:00 6.7 17 Este 39 Este 0 -- -- 88
2019-04-19 11:00:00 6.3 18 Sudeste 34 Sudeste 0.4 -- -- 92
2019-04-19 10:00:00 6.1 15 Sudeste 30 Sudeste 0.6 -- -- 94
2019-04-19 09:00:00 6 10 Sudeste 22 Sudeste 0.4 -- -- 95
2019-04-19 08:00:00 5.6 8 Sur 19 Sudeste 0.8 -- -- 93
2019-04-19 07:00:00 5.4 8 Sudeste 31 Sudeste 2 -- -- 92
2019-04-19 06:00:00 5.6 10 Sudeste 33 Sudeste 2.6 -- -- 92
2019-04-19 05:00:00 5.8 14 Sudeste 40 Este 1.4 -- -- 92
2019-04-19 04:00:00 5.9 17 Sudeste 34 Este 1.4 -- -- 92
2019-04-19 03:00:00 5.6 9 Sur 30 Este 1.4 -- -- 93
2019-04-19 02:00:00 5.8 18 Este 35 Este 0.6 -- -- 92
2019-04-19 01:00:00 5.7 4 Nordeste 18 Sudeste 0.6 -- -- 93
2019-04-19 00:00:00 6.1 17 Sudeste 37 Sudeste 1.6 -- -- 91
2019-04-18 23:00:00 6.5 15 Sudeste 44 Sudeste 2.6 -- -- 90
2019-04-18 22:00:00 7 14 Sudeste 36 Sudeste 0.6 -- -- 87
2019-04-18 21:00:00 6.8 5 Nordeste 13 Nordeste 0.8 -- -- 89
2019-04-18 20:00:00 6.6 5 Norte 13 Noroeste 1.2 -- -- 92
2019-04-18 19:00:00 6.8 2 Sur 11 Sudoeste 1.6 -- -- 92
2019-04-18 18:00:00 7.1 5 Sur 23 Este 1 -- -- 90
2019-04-18 17:00:00 7.6 15 Este 34 Este 0 -- -- 79
2019-04-18 16:00:00 8 15 Este 30 Este 0 -- -- 75
2019-04-18 15:00:00 8.1 12 Este 26 Sudeste 0 -- -- 84
2019-04-18 14:00:00 8.3 15 Sudeste 32 Este 0 -- -- 83
2019-04-18 13:00:00 9.7 17 Este 30 Este 0 -- -- 85
2019-04-18 12:00:00 7.1 3 Noroeste 19 Sudeste 2.4 -- -- 97
2019-04-18 11:00:00 6.8 4 Sudeste 29 Sudoeste 5.4 -- -- 96
2019-04-18 10:00:00 7.2 5 Sur 15 Sudeste 5 -- -- 96
2019-04-18 09:00:00 7.3 13 Sur 25 Sudeste 3.2 -- -- 96
2019-04-18 08:00:00 7.8 10 Sur 19 Sudeste 3.6 -- -- 95
2019-04-18 07:00:00 8.3 7 Sur 12 Sur 1.2 -- -- 93
2019-04-18 06:00:00 8.5 6 Sur 16 Sudeste 0.8 -- -- 92
2019-04-18 05:00:00 8.9 9 Sur 19 Sur 0 -- -- 88
2019-04-18 04:00:00 8.6 6 Sur 10 Sur 0 -- -- 86
2019-04-18 03:00:00 8.3 0 Calma 6 Norte 0 -- -- 86
2019-04-18 02:00:00 8.6 3 Oeste 5 Oeste 0 -- -- 84
2019-04-18 01:00:00 9.3 0 Calma 15 Sudoeste 0 -- -- 81
2019-04-18 00:00:00 10 8 Sudoeste 15 Sur 0 -- -- 79
2019-04-17 23:00:00 10.8 9 Sur 17 Sudoeste 0 -- -- 76
2019-04-17 22:00:00 11 12 Sudoeste 21 Sudoeste 0 -- -- 73
2019-04-17 21:00:00 11.8 3 Este 18 Este 0 -- -- 69
2019-04-17 20:00:00 13.2 7 Este 22 Este 0 -- -- 67
2019-04-17 19:00:00 15 12 Este 31 Este 0 -- -- 60
2019-04-17 18:00:00 16.1 17 Sudeste 31 Sudeste 0 -- -- 54
2019-04-17 17:00:00 16.7 21 Sudeste 36 Sudeste 0 -- -- 49
2019-04-17 16:00:00 18 17 Sur 41 Sur 0 -- -- 45
2019-04-17 15:00:00 17.1 23 Sur 42 Sur 0 -- -- 46
2019-04-17 14:00:00 15.5 17 Sur 30 Sudeste 0 -- -- 60
2019-04-17 13:00:00 12.9 13 Sur 24 Sur 0 -- -- 68
2019-04-17 12:00:00 10 10 Sur 22 Sur 0 -- -- 78
2019-04-17 11:00:00 8.7 13 Sur 21 Sur 0 -- -- 84
2019-04-17 10:00:00 6.9 11 Sudeste 16 Sudeste 0 -- -- 92
2019-04-17 09:00:00 6 7 Sudeste 13 Sur 0 -- -- 94
2019-04-17 08:00:00 5.6 9 Sur 16 Sur 0 -- -- 93
2019-04-17 07:00:00 5.9 10 Sur 18 Sur 0 -- -- 91
2019-04-17 06:00:00 6.3 10 Sur 17 Sur 0 -- -- 90
2019-04-17 05:00:00 5.5 6 Sur 10 Sur 0 -- -- 88
2019-04-17 04:00:00 6 0 Calma 6 Sur 0 -- -- 83
2019-04-17 03:00:00 6.6 5 Sur 14 Sur 0 -- -- 83
2019-04-17 02:00:00 5.2 0 Calma 4 Norte 0 -- -- 83
2019-04-17 01:00:00 5.5 2 Norte 4 Sudeste 0 -- -- 80
2019-04-17 00:00:00 7.7 3 Sudeste 14 Sudoeste 0 -- -- 73
2019-04-16 23:00:00 8.6 8 Sudoeste 14 Sudoeste 0 -- -- 72
2019-04-16 22:00:00 9.1 8 Sudoeste 15 Sudoeste 0 -- -- 67
2019-04-16 21:00:00 10.8 3 Sudeste 12 Sur 0 -- -- 54
2019-04-16 20:00:00 12.9 9 Sur 24 Sudeste 0 -- -- 44
2019-04-16 19:00:00 13.7 14 Sudeste 24 Sudeste 0 -- -- 42
2019-04-16 18:00:00 14.1 14 Sur 26 Sudeste 0 -- -- 45
2019-04-16 17:00:00 13.9 13 Sur 32 Sudeste 0 -- -- 46
2019-04-16 16:00:00 13.9 14 Sudeste 26 Sudeste 0 -- -- 52
2019-04-16 15:00:00 14.1 14 Sur 28 Sudeste 0 -- -- 48
2019-04-16 14:00:00 12.1 10 Sudeste 22 Sudeste 0 -- -- 52
2019-04-16 13:00:00 11.7 8 Sur 18 Sur 0 -- -- 64
2019-04-16 12:00:00 10.5 11 Sudeste 22 Sudeste 0 -- -- 70
2019-04-16 11:00:00 8.4 11 Sudeste 19 Sudeste 0 -- -- 76
2019-04-16 10:00:00 7.8 11 Sur 18 Sudeste 0 -- -- 82
2019-04-16 09:00:00 4.2 4 Norte 11 Norte 0 -- -- 92
2019-04-16 08:00:00 2.9 6 Norte 10 Norte 0 -- -- 92
2019-04-16 07:00:00 3.2 5 Norte 9 Norte 0 -- -- 91
2019-04-16 06:00:00 4.7 2 Nordeste 7 Sudoeste 0 -- -- 90
2019-04-16 05:00:00 5.1 0 Calma 8 Sudeste 0 -- -- 88
2019-04-16 04:00:00 5.3 4 Noroeste 6 Norte 0 -- -- 87
2019-04-16 03:00:00 5.3 2 Norte 10 Noroeste 0 -- -- 88
2019-04-16 02:00:00 5.4 4 Norte 13 Noroeste 0 -- -- 84
2019-04-16 01:00:00 5.9 2 Sudeste 13 Oeste 0 -- -- 79
2019-04-16 00:00:00 7.4 11 Norte 25 Norte 0 -- -- 77
2019-04-15 23:00:00 7.9 5 Noroeste 22 Noroeste 0 -- -- 82
2019-04-15 22:00:00 9.3 13 Noroeste 26 Norte 0.2 -- -- 79
2019-04-15 21:00:00 10.2 15 Noroeste 37 Noroeste 0.2 -- -- 81
2019-04-15 20:00:00 10.9 25 Noroeste 42 Oeste 0.6 -- -- 74
2019-04-15 19:00:00 15.7 12 Sudoeste 49 Sudoeste 0 -- -- 54
2019-04-15 18:00:00 17.5 26 Sur 48 Sudoeste 0 -- -- 56
2019-04-15 17:00:00 17.4 27 Sur 55 Sur 0 -- -- 53
2019-04-15 16:00:00 18.2 23 Sur 47 Sudoeste 0 -- -- 53
2019-04-15 15:00:00 18.4 24 Sudoeste 41 Sur 0 -- -- 59
2019-04-15 14:00:00 16.6 21 Sur 42 Sur 0 -- -- 61
2019-04-15 13:00:00 16.3 21 Sur 37 Sudoeste 0 -- -- 60
2019-04-15 12:00:00 16.2 23 Sudoeste 34 Sudoeste 0 -- -- 67
2019-04-15 11:00:00 12.9 15 Sudeste 22 Sudeste 0 -- -- 76
2019-04-15 10:00:00 10.5 10 Sudeste 18 Sudeste 0 -- -- 82
2019-04-15 09:00:00 7.8 0 Calma 6 Norte 0 -- -- 93
2019-04-15 08:00:00 6.2 5 Norte 10 Norte 0 -- -- 94
2019-04-15 07:00:00 5.7 6 Norte 12 Norte 0 -- -- 94
2019-04-15 06:00:00 5.8 9 Norte 10 Norte 0 -- -- 94
2019-04-15 05:00:00 5.6 8 Norte 10 Norte 0 -- -- 94
2019-04-15 04:00:00 5.4 7 Norte 11 Norte 0 -- -- 92
2019-04-15 03:00:00 5.6 6 Norte 12 Norte 0 -- -- 91
2019-04-15 02:00:00 6 6 Norte 13 Norte 0 -- -- 90
2019-04-15 01:00:00 6.5 6 Norte 12 Norte 0 -- -- 87
2019-04-15 00:00:00 7.4 9 Norte 13 Norte 0 -- -- 85
2019-04-14 23:00:00 8.7 7 Norte 13 Norte 0 -- -- 78
2019-04-14 22:00:00 11.3 5 Norte 13 Noroeste 0 -- -- 72
2019-04-14 21:00:00 13 9 Noroeste 14 Norte 0 -- -- 66
2019-04-14 20:00:00 14.6 9 Norte 21 Nordeste 0 -- -- 59
2019-04-14 19:00:00 15.7 15 Norte 24 Norte 0 -- -- 58
2019-04-14 18:00:00 16.8 16 Norte 26 Norte 0 -- -- 55
2019-04-14 17:00:00 17.3 17 Norte 26 Norte 0 -- -- 52
2019-04-14 16:00:00 16.9 12 Norte 22 Norte 0 -- -- 54
2019-04-14 15:00:00 16.9 8 Nordeste 17 Norte 0 -- -- 52
2019-04-14 14:00:00 17.2 5 Sudoeste 15 Sudeste 0 -- -- 50
2019-04-14 13:00:00 16 7 Sudeste 30 Oeste 0 -- -- 53
2019-04-14 12:00:00 15.9 12 Noroeste 30 Oeste 0 -- -- 55
2019-04-14 11:00:00 14.9 6 Noroeste 23 Norte 0 -- -- 53
2019-04-14 10:00:00 11.5 4 Sudeste 13 Norte 0 -- -- 60
2019-04-14 09:00:00 10.6 8 Norte 14 Norte 0 -- -- 65
2019-04-14 08:00:00 8.5 5 Norte 23 Oeste 0 -- -- 69
2019-04-14 07:00:00 9.1 8 Noroeste 20 Noroeste 0 -- -- 68
2019-04-14 06:00:00 5.3 3 Noroeste 12 Norte 0 -- -- 76
2019-04-14 05:00:00 4.9 4 Norte 10 Norte 0 -- -- 75
2019-04-14 04:00:00 3.6 5 Norte 8 Norte 0 -- -- 77
2019-04-14 03:00:00 3.6 6 Norte 13 Norte 0 -- -- 74
2019-04-14 02:00:00 3.3 6 Norte 10 Norte 0 -- -- 74
2019-04-14 01:00:00 3 3 Norte 11 Norte 0 -- -- 72
2019-04-14 00:00:00 3.8 6 Norte 15 Norte 0 -- -- 67
2019-04-13 23:00:00 4.1 5 Noroeste 14 Noroeste 0 -- -- 63
2019-04-13 22:00:00 6.2 9 Norte 13 Norte 0 -- -- 55
2019-04-13 21:00:00 9.7 6 Norte 18 Norte 0 -- -- 42
2019-04-13 20:00:00 13.5 14 Norte 22 Noroeste 0 -- -- 30
2019-04-13 19:00:00 15.6 16 Norte 26 Norte 0 -- -- 20
2019-04-13 18:00:00 16.6 7 Nordeste 23 Este 0 -- -- 18
2019-04-13 17:00:00 16.4 9 Sudeste 24 Sudeste 0 -- -- 19
2019-04-13 16:00:00 16.3 8 Sudeste 25 Sudeste 0 -- -- 17
2019-04-13 15:00:00 16.7 9 Oeste 23 Sudoeste 0 -- -- 16
2019-04-13 14:00:00 15.1 7 Nordeste 22 Este 0 -- -- 14
2019-04-13 13:00:00 13.9 12 Nordeste 24 Nordeste 0 -- -- 15
2019-04-13 12:00:00 13.4 9 Norte 22 Noroeste 0 -- -- 17
2019-04-13 11:00:00 12 14 Norte 23 Noroeste 0 -- -- 19
2019-04-13 10:00:00 9.9 11 Norte 18 Norte 0 -- -- 15
2019-04-13 09:00:00 5.6 6 Norte 13 Norte 0 -- -- 22
2019-04-13 08:00:00 0.7 6 Norte 14 Norte 0 -- -- 33
2019-04-13 07:00:00 1.2 9 Noroeste 21 Noroeste 0 -- -- 31
2019-04-13 06:00:00 2 11 Norte 19 Norte 0 -- -- 28
2019-04-13 05:00:00 2.2 14 Noroeste 24 Noroeste 0 -- -- 30
2019-04-13 04:00:00 1.5 16 Norte 23 Norte 0 -- -- 34
2019-04-13 03:00:00 1.2 16 Norte 22 Norte 0 -- -- 41
2019-04-13 02:00:00 0.6 11 Norte 18 Norte 0 -- -- 51
2019-04-13 01:00:00 2.6 10 Norte 19 Noroeste 0 -- -- 53
2019-04-13 00:00:00 2.4 16 Noroeste 25 Norte 0 -- -- 73
2019-04-12 23:00:00 3.7 19 Norte 38 Norte 0 -- -- 72
2019-04-12 22:00:00 4.6 24 Norte 41 Norte 0 -- -- 68
2019-04-12 21:00:00 5.9 18 Norte 33 Noroeste 0 -- -- 62
2019-04-12 20:00:00 7.7 18 Norte 30 Norte 0 -- -- 53
2019-04-12 19:00:00 10 16 Norte 31 Norte 0 -- -- 45
2019-04-12 18:00:00 10.8 20 Norte 35 Norte 0 -- -- 41
2019-04-12 17:00:00 11.1 19 Norte 34 Norte 0 -- -- 45
2019-04-12 16:00:00 11.4 21 Noroeste 33 Noroeste 0 -- -- 48
2019-04-12 15:00:00 10.4 18 Norte 37 Norte 0 -- -- 48
2019-04-12 14:00:00 10.1 18 Noroeste 32 Norte 0 -- -- 49
2019-04-12 13:00:00 8.3 21 Noroeste 39 Norte 0 -- -- 58
2019-04-12 12:00:00 6.6 23 Norte 40 Norte 0 -- -- 62
2019-04-12 11:00:00 4.8 25 Norte 44 Norte 0 -- -- 70
2019-04-12 10:00:00 3.6 29 Norte 46 Norte 0 -- -- 74
2019-04-12 09:00:00 2.8 18 Norte 47 Norte 0 -- -- 79
2019-04-12 08:00:00 1.3 13 Norte 33 Norte 0 -- -- 86
2019-04-12 07:00:00 1.6 11 Norte 27 Norte 0 -- -- 86
2019-04-12 06:00:00 1.7 10 Norte 26 Noroeste 0 -- -- 86
2019-04-12 05:00:00 1.8 12 Norte 28 Noroeste 0 -- -- 87
2019-04-12 04:00:00 2 14 Noroeste 28 Noroeste 0 -- -- 87
2019-04-12 03:00:00 2 18 Norte 36 Norte 0 -- -- 87
2019-04-12 02:00:00 1.9 22 Norte 46 Norte 0 -- -- 85
2019-04-12 01:00:00 2.1 25 Norte 42 Norte 0 -- -- 85
2019-04-12 00:00:00 2.5 17 Norte 36 Norte 0 -- -- 84
2019-04-11 23:00:00 2.9 23 Norte 46 Norte 0 -- -- 86
2019-04-11 22:00:00 3 15 Norte 36 Noroeste 0.2 -- -- 87
2019-04-11 21:00:00 3.4 15 Norte 33 Norte 0 -- -- 88
2019-04-11 20:00:00 3.5 22 Norte 39 Norte 0 -- -- 88
2019-04-11 19:00:00 5 26 Norte 41 Noroeste 0 -- -- 79
2019-04-11 18:00:00 5.4 21 Norte 39 Norte 0 -- -- 80
2019-04-11 17:00:00 6.8 18 Norte 41 Norte 0 -- -- 71
2019-04-11 16:00:00 7.8 22 Norte 43 Noroeste 0 -- -- 68
2019-04-11 15:00:00 6.7 26 Norte 45 Norte 0 -- -- 72
2019-04-11 14:00:00 5.6 24 Norte 45 Norte 0 -- -- 76
2019-04-11 13:00:00 5.8 28 Norte 47 Norte 0 -- -- 73
2019-04-11 12:00:00 4.5 24 Norte 45 Norte 0 -- -- 73
2019-04-11 11:00:00 4.8 25 Norte 47 Norte 0 -- -- 73
2019-04-11 10:00:00 3.7 26 Norte 44 Norte 0 -- -- 76
2019-04-11 09:00:00 2.7 27 Norte 44 Norte 0 -- -- 79
2019-04-11 08:00:00 1.7 21 Norte 42 Norte 0 -- -- 83
2019-04-11 07:00:00 1.8 30 Norte 44 Noroeste 0.2 -- -- 88
2019-04-11 06:00:00 1.7 21 Norte 36 Norte 0 -- -- 90
2019-04-11 05:00:00 1.9 24 Norte 39 Norte 0 -- -- 88
2019-04-11 04:00:00 2 27 Norte 40 Norte 0 -- -- 84
2019-04-11 03:00:00 2 22 Norte 35 Noroeste 0 -- -- 89
2019-04-11 02:00:00 2.3 18 Norte 41 Norte 0 -- -- 87
2019-04-11 01:00:00 2.6 21 Norte 41 Norte 0 -- -- 87
2019-04-11 00:00:00 2.8 23 Norte 45 Norte 0 -- -- 88
2019-04-10 23:00:00 3.2 20 Norte 34 Norte 0 -- -- 85
2019-04-10 22:00:00 3.5 18 Norte 33 Norte 0 -- -- 83
2019-04-10 21:00:00 3.6 17 Norte 36 Norte 0 -- -- 79
2019-04-10 20:00:00 3.7 23 Norte 39 Norte 0 -- -- 82
2019-04-10 19:00:00 5.5 21 Norte 37 Noroeste 0 -- -- 72
2019-04-10 18:00:00 5.8 24 Norte 38 Noroeste 0 -- -- 74
2019-04-10 17:00:00 7.1 25 Norte 42 Norte 0 -- -- 66
2019-04-10 16:00:00 8.4 22 Norte 39 Norte 0 -- -- 60
2019-04-10 15:00:00 7.5 17 Norte 37 Norte 0 -- -- 64
2019-04-10 14:00:00 5.6 18 Norte 29 Norte 0 -- -- 71
2019-04-10 13:00:00 6.5 18 Noroeste 30 Noroeste 0 -- -- 71
2019-04-10 12:00:00 5.2 22 Norte 31 Norte 0 -- -- 72
2019-04-10 11:00:00 4 18 Norte 27 Noroeste 0 -- -- 82
2019-04-10 10:00:00 3.5 18 Norte 28 Norte 0 -- -- 83
2019-04-10 09:00:00 1.8 8 Norte 18 Norte 0 -- -- 97
2019-04-10 08:00:00 -0.5 0 Calma 9 Sudeste 0 -- -- 94
2019-04-10 07:00:00 -0.6 0 Calma 7 Sudeste 0 -- -- 94
2019-04-10 06:00:00 -0.7 0 Calma 5 Oeste 0.2 -- -- 93
2019-04-10 05:00:00 0.2 0 Calma 9 Norte 0 -- -- 92
2019-04-10 04:00:00 1.3 6 Norte 17 Noroeste 0 -- -- 92
2019-04-10 03:00:00 1.3 9 Noroeste 14 Norte 0 -- -- 92
2019-04-10 02:00:00 1.1 5 Norte 17 Norte 1 -- -- 92
2019-04-10 01:00:00 2 2 Norte 9 Norte 0 -- -- 88
2019-04-10 00:00:00 1.9 0 Calma 9 Sudeste 0.2 -- -- 90
2019-04-09 23:00:00 2 5 Nordeste 20 Norte 0.4 -- -- 88
2019-04-09 22:00:00 2.9 13 Nordeste 30 Noroeste 0 -- -- 83
2019-04-09 21:00:00 4.2 19 Noroeste 45 Norte 0 -- -- 72
2019-04-09 20:00:00 5.5 5 Sur 35 Norte 0 -- -- 67
2019-04-09 19:00:00 6.4 12 Oeste 26 Oeste 0 -- -- 68
2019-04-09 18:00:00 6.1 16 Oeste 27 Sudoeste 0 -- -- 72
2019-04-09 17:00:00 6.1 13 Oeste 29 Sudoeste 0 -- -- 71
2019-04-09 16:00:00 7.1 14 Oeste 24 Sudoeste 0 -- -- 69
2019-04-09 15:00:00 5.9 12 Oeste 28 Sudoeste 0 -- -- 77
2019-04-09 14:00:00 6.4 9 Sudoeste 28 Oeste 0 -- -- 76
2019-04-09 13:00:00 5.7 7 Sur 21 Sudeste 0 -- -- 73
2019-04-09 12:00:00 4.4 6 Oeste 18 Sudoeste 0 -- -- 78
2019-04-09 11:00:00 3.9 8 Oeste 23 Sur 0 -- -- 77
2019-04-09 10:00:00 3.4 11 Oeste 24 Sur 0 -- -- 79
2019-04-09 09:00:00 3.8 9 Sur 21 Este 0 -- -- 76
2019-04-09 08:00:00 2.3 9 Sudoeste 19 Oeste 0 -- -- 83
2019-04-09 07:00:00 1 2 Sudeste 10 Sudoeste 0 -- -- 86
2019-04-09 06:00:00 2 5 Oeste 15 Sudoeste 0 -- -- 81
2019-04-09 05:00:00 2.2 8 Sudoeste 14 Sudoeste 0 -- -- 77
2019-04-09 04:00:00 1.8 3 Sur 8 Nordeste 0 -- -- 82
2019-04-09 03:00:00 2.3 2 Sudeste 5 Noroeste 0 -- -- 81
2019-04-09 02:00:00 2.3 5 Norte 9 Norte 0 -- -- 80
2019-04-09 01:00:00 1.9 3 Norte 12 Noroeste 0 -- -- 80
2019-04-09 00:00:00 1.8 4 Oeste 6 Norte 0 -- -- 78
2019-04-08 23:00:00 2.9 4 Noroeste 8 Norte 0 -- -- 75
2019-04-08 22:00:00 3.5 7 Norte 10 Oeste 0 -- -- 74
2019-04-08 21:00:00 5.4 5 Norte 13 Oeste 0 -- -- 63
2019-04-08 20:00:00 8.5 9 Oeste 29 Oeste 0 -- -- 50
2019-04-08 19:00:00 9.6 15 Oeste 27 Oeste 0 -- -- 52
2019-04-08 18:00:00 12.3 13 Oeste 30 Oeste 0 -- -- 44
2019-04-08 17:00:00 12.8 16 Oeste 34 Oeste 0 -- -- 44
2019-04-08 16:00:00 12.9 16 Oeste 30 Oeste 0 -- -- 48
2019-04-08 15:00:00 12.6 15 Sudoeste 31 Sudoeste 0.2 -- -- 47
2019-04-08 14:00:00 8.5 19 Oeste 35 Oeste 0 -- -- 65
2019-04-08 13:00:00 10.7 16 Oeste 40 Oeste 0 -- -- 59
2019-04-08 12:00:00 9 13 Oeste 36 Sudoeste 0 -- -- 72
2019-04-08 11:00:00 5.2 10 Sudeste 22 Sudeste 0 -- -- 98
2019-04-08 10:00:00 4.6 7 Sur 13 Sur 0.2 -- -- 96
2019-04-08 09:00:00 4 0 Calma 9 Sur 0 -- -- 97
2019-04-08 08:00:00 3.1 4 Sudeste 12 Sur 0.2 -- -- 97
2019-04-08 07:00:00 2.8 7 Sur 15 Sur 0 -- -- 96
2019-04-08 06:00:00 2.4 6 Sur 15 Sudeste 0 -- -- 96
2019-04-08 05:00:00 2.2 3 Sur 12 Este 0.2 -- -- 95
2019-04-08 04:00:00 1.8 4 Sudeste 9 Sur 0 -- -- 95
2019-04-08 03:00:00 1.6 4 Sudeste 12 Sudeste 0.2 -- -- 93
2019-04-08 02:00:00 1.9 8 Sudeste 17 Sur 0 -- -- 92
2019-04-08 01:00:00 2.4 8 Sur 20 Sudoeste 0.2 -- -- 89
2019-04-08 00:00:00 2.8 12 Sudoeste 25 Oeste 0 -- -- 85
2019-04-07 23:00:00 3.4 6 Sur 15 Este 0 -- -- 78
2019-04-07 22:00:00 3.9 4 Sur 23 Sudoeste 0 -- -- 76
2019-04-07 21:00:00 4.6 5 Sur 13 Sudoeste 0 -- -- 64
2019-04-07 20:00:00 5.3 6 Sudoeste 18 Oeste 0 -- -- 64
2019-04-07 19:00:00 6.1 5 Oeste 28 Oeste 0 -- -- 60
2019-04-07 18:00:00 6.9 22 Oeste 34 Sudoeste 0 -- -- 55
2019-04-07 17:00:00 7.4 21 Sudoeste 33 Sudoeste 0.2 -- -- 58
2019-04-07 16:00:00 6.9 20 Sudoeste 34 Sudoeste 0 -- -- 61
2019-04-07 15:00:00 6.5 9 Noroeste 23 Noroeste 0 -- -- 56
2019-04-07 14:00:00 7.2 11 Noroeste 28 Norte 0 -- -- 60
2019-04-07 13:00:00 5.2 12 Noroeste 28 Noroeste 0 -- -- 61
2019-04-07 12:00:00 5.3 13 Norte 22 Noroeste 0 -- -- 72
2019-04-07 11:00:00 3.6 7 Norte 16 Sudeste 1.2 -- -- 73
2019-04-07 10:00:00 1.5 3 Este 10 Noroeste 1.4 -- -- 79
2019-04-07 09:00:00 1.2 4 Norte 15 Oeste 0 -- -- 83
2019-04-07 08:00:00 -1.1 3 Noroeste 14 Noroeste 0 -- -- 91
2019-04-07 07:00:00 -2 4 Noroeste 10 Noroeste 0 -- -- 93
2019-04-07 06:00:00 -1.8 0 Calma -- -- 0 -- -- 93
2019-04-07 05:00:00 -1.4 0 Calma -- -- 0 -- -- 91
2019-04-07 04:00:00 -0.6 0 Calma -- -- 0 -- -- 91
2019-04-07 03:00:00 -0.5 0 Calma -- -- 0 -- -- 93
2019-04-07 02:00:00 0.2 0 Calma 4 Sudoeste 0 -- -- 94
2019-04-07 01:00:00 0.4 6 Noroeste 12 Sudeste 0 -- -- 95
2019-04-07 00:00:00 0.3 2 Sudeste 5 Sudeste 0 -- -- 94
2019-04-06 23:00:00 0.2 0 Calma 7 Sur 0 -- -- 94
2019-04-06 22:00:00 0.5 3 Sudoeste 13 Oeste 0 -- -- 93
2019-04-06 21:00:00 1.5 2 Sur 19 Sudeste 0 -- -- 90
2019-04-06 20:00:00 2.3 6 Sudeste 19 Oeste 0.2 -- -- 86
2019-04-06 19:00:00 3.2 8 Oeste 33 Sudoeste 0 -- -- 79
2019-04-06 18:00:00 4.5 11 Sudoeste 28 Sudoeste 0.2 -- -- 72
2019-04-06 17:00:00 5.5 15 Sudoeste 40 Oeste 0.2 -- -- 71
2019-04-06 16:00:00 5.1 8 Sudoeste 35 Sudoeste 0.6 -- -- 78
2019-04-06 15:00:00 3.9 5 Sudeste 34 Oeste 0 -- -- 71
2019-04-06 14:00:00 3.8 13 Oeste 36 Sudoeste 0 -- -- 73
2019-04-06 13:00:00 1.8 14 Sudoeste 37 Sudoeste 0.2 -- -- 87
2019-04-06 12:00:00 1 5 Sudoeste 28 Oeste 0 -- -- 90
2019-04-06 11:00:00 0.5 5 Sudeste 24 Sudoeste 0.2 -- -- 88
2019-04-06 10:00:00 0.4 9 Sur 23 Sur 0 -- -- 82
2019-04-06 09:00:00 -0.1 13 Sur 26 Sur 0 -- -- 86
2019-04-06 08:00:00 -0.3 8 Sur 17 Sudeste 0 -- -- 84
2019-04-06 07:00:00 -0.8 5 Sudeste 17 Sudeste 0 -- -- 91
2019-04-06 06:00:00 -0.8 3 Sudeste 18 Sudeste 0 -- -- 93
2019-04-06 05:00:00 -1.2 5 Sudeste 15 Sudeste 0 -- -- 94
2019-04-06 04:00:00 -2.4 0 Calma 9 Sudeste 0 -- -- 93
2019-04-06 03:00:00 -2 2 Sudeste 5 Sudeste 0 -- -- 94
2019-04-06 02:00:00 -2 2 Sudeste 5 Sudeste 0 -- -- 95
2019-04-06 01:00:00 -1.7 0 Calma 6 Sudeste 0 -- -- 94
2019-04-06 00:00:00 -1 0 Calma 6 Sudoeste 0 -- -- 94
2019-04-05 23:00:00 -0.4 2 Sur 6 Sudoeste 0 -- -- 94
2019-04-05 22:00:00 0.2 0 Calma 5 Sur 0 -- -- 93
2019-04-05 21:00:00 0.9 4 Sur 9 Sudeste 0 -- -- 94
2019-04-05 20:00:00 1.1 5 Sudeste 10 Sudeste 0 -- -- 93
2019-04-05 19:00:00 1.6 7 Sudeste 13 Este 0.2 -- -- 90
2019-04-05 18:00:00 2.4 5 Sudeste 24 Sudoeste 0.2 -- -- 88
2019-04-05 17:00:00 3.6 14 Sudoeste 34 Sur 0.4 -- -- 85
2019-04-05 16:00:00 4.8 19 Sur 37 Sur 0 -- -- 76
2019-04-05 15:00:00 4 14 Sur 31 Sur 0 -- -- 83
2019-04-05 14:00:00 4.1 19 Sur 33 Sur 0 -- -- 85
2019-04-05 13:00:00 3.6 17 Sur 29 Sudoeste 0 -- -- 91
2019-04-05 12:00:00 2.6 13 Sudoeste 32 Sudoeste 0.2 -- -- 93
2019-04-05 11:00:00 2.2 14 Sudoeste 29 Sur 0.2 -- -- 94
2019-04-05 10:00:00 1.4 13 Sur 27 Sur 0.4 -- -- 95
2019-04-05 09:00:00 0.4 8 Sur 14 Sudoeste 0 -- -- 94
2019-04-05 08:00:00 0.3 7 Sudeste 13 Sudeste 0 -- -- 91
2019-04-05 07:00:00 1 8 Sudeste 12 Sudeste 0 -- -- 84
2019-04-05 06:00:00 2 6 Sudeste 24 Sur 0 -- -- 73
2019-04-05 05:00:00 2.1 14 Sur 27 Sur 0 -- -- 74
2019-04-05 04:00:00 1.5 9 Sudeste 17 Sudeste 0 -- -- 76
2019-04-05 03:00:00 1.4 5 Sur 11 Sur 0 -- -- 73
2019-04-05 02:00:00 2 3 Sudeste 13 Sudoeste 0 -- -- 69
2019-04-05 01:00:00 2.6 0 Calma 11 Sur 0 -- -- 63
2019-04-05 00:00:00 3.2 8 Oeste 19 Sudoeste 0 -- -- 60
2019-04-04 23:00:00 3.6 13 Oeste 28 Sur 0 -- -- 58
2019-04-04 22:00:00 4.5 5 Sur 18 Sudoeste 0 -- -- 48
2019-04-04 21:00:00 5 2 Sudoeste 13 Sudoeste 0 -- -- 48
2019-04-04 20:00:00 6.3 5 Sudoeste 31 Sudoeste 0 -- -- 42
2019-04-04 19:00:00 7.3 12 Sudoeste 32 Sudoeste 0 -- -- 39
2019-04-04 18:00:00 8.9 9 Sudoeste 36 Sudoeste 0 -- -- 39
2019-04-04 17:00:00 8.3 18 Oeste 37 Sur 0 -- -- 37
2019-04-04 16:00:00 7.8 21 Sudoeste 39 Sudoeste 0 -- -- 43
2019-04-04 15:00:00 8.1 17 Sudoeste 32 Sudoeste 0 -- -- 47
2019-04-04 14:00:00 6.8 7 Sudoeste 27 Oeste 0 -- -- 53
2019-04-04 13:00:00 4.6 14 Sur 28 Sudeste 0 -- -- 55
2019-04-04 12:00:00 4.1 10 Sur 20 Sur 0 -- -- 54
2019-04-04 11:00:00 2.7 4 Noroeste 20 Oeste 0 -- -- 58
2019-04-04 10:00:00 1 2 Este 11 Nordeste 0 -- -- 61
2019-04-04 09:00:00 -1.6 0 Calma 17 Oeste 0 -- -- 73
2019-04-04 08:00:00 -3.5 2 Este 23 Noroeste 0 -- -- 74
2019-04-04 07:00:00 -5 3 Norte 7 Norte 0 -- -- 84
2019-04-04 06:00:00 -3.9 4 Sudeste 22 Nordeste 0 -- -- 78
2019-04-04 05:00:00 -3.1 9 Norte 23 Noroeste 0 -- -- 75
2019-04-04 04:00:00 -4.7 0 Calma 6 Sudoeste -- -- -- 84
2019-04-04 03:00:00 -4 2 Este 25 Noroeste 0 -- -- 81
2019-04-04 02:00:00 -2.8 9 Noroeste 27 Noroeste 0 -- -- 77
2019-04-04 01:00:00 -2.5 12 Noroeste 27 Noroeste 0 -- -- 75
2019-04-04 00:00:00 -2.5 12 Noroeste 38 Noroeste 0 -- -- 80
2019-04-03 23:00:00 -2 14 Noroeste 31 Norte 0 -- -- 79
2019-04-03 22:00:00 -1.5 15 Noroeste 28 Noroeste 0 -- -- 83
2019-04-03 21:00:00 -0.8 17 Norte 36 Noroeste 0 -- -- 84
2019-04-03 20:00:00 0.2 12 Noroeste 33 Norte 0 -- -- 81
2019-04-03 19:00:00 0.3 19 Norte 41 Noroeste 0 -- -- 83
2019-04-03 18:00:00 1.4 21 Norte 38 Noroeste 0.2 -- -- 87
2019-04-03 17:00:00 1.5 19 Norte 40 Norte 0 -- -- 86
2019-04-03 16:00:00 2.9 21 Norte 34 Norte 0 -- -- 80
2019-04-03 15:00:00 4 18 Norte 41 Norte 0.2 -- -- 74
2019-04-03 14:00:00 5.3 12 Norte 33 Noroeste 0 -- -- 70
2019-04-03 13:00:00 4.7 8 Noroeste 26 Noroeste 0 -- -- 74
2019-04-03 12:00:00 3.2 18 Norte 37 Norte 0 -- -- 80
2019-04-03 11:00:00 4.6 14 Oeste 36 Noroeste 0 -- -- 73
2019-04-03 10:00:00 3.2 10 Oeste 24 Sudoeste 0 -- -- 92
2019-04-03 09:00:00 2.1 3 Norte 5 Norte 0 -- -- 96
2019-04-03 08:00:00 2.6 2 Oeste 5 Sudoeste 0 -- -- 95
2019-04-03 07:00:00 3.6 2 Este 7 Sur 0 -- -- 96
2019-04-03 06:00:00 3.9 5 Sudeste 8 Sur 0 -- -- 95
2019-04-03 05:00:00 4.1 0 Calma 5 Noroeste 0 -- -- 95
2019-04-03 04:00:00 4.4 0 Calma 7 Norte 0 -- -- 95
2019-04-03 03:00:00 4.3 5 Norte 8 Norte 0 -- -- 96
2019-04-03 02:00:00 3.8 4 Norte 8 Norte 0 -- -- 95
2019-04-03 01:00:00 3.3 5 Norte 9 Norte 0 -- -- 95
2019-04-03 00:00:00 4.2 3 Norte 12 Norte 0 -- -- 94
2019-04-02 23:00:00 4 5 Norte 8 Norte 0 -- -- 94
2019-04-02 22:00:00 4.7 7 Norte 12 Norte 0 -- -- 93
2019-04-02 21:00:00 6.2 4 Norte 6 Nordeste 0 -- -- 91
2019-04-02 20:00:00 7 0 Calma 7 Noroeste 0 -- -- 89
2019-04-02 19:00:00 7 6 Noroeste 16 Sudeste 0.8 -- -- 87
2019-04-02 18:00:00 7.3 12 Sudeste 19 Sudeste 1.2 -- -- 89
2019-04-02 17:00:00 7.2 4 Noroeste 19 Norte 1.8 -- -- 89
2019-04-02 16:00:00 6.2 15 Norte 23 Norte 1 -- -- 86
2019-04-02 15:00:00 8.9 4 Sur 10 Sur 0 -- -- 76
2019-04-02 14:00:00 7.9 6 Sudeste 14 Sudoeste 0.2 -- -- 75
2019-04-02 13:00:00 8.2 6 Sudoeste 15 Sudeste 0.4 -- -- 76
2019-04-02 12:00:00 8.8 9 Sur 18 Sudeste 0 -- -- 75
2019-04-02 11:00:00 9.3 4 Nordeste 18 Norte 0 -- -- 70
2019-04-02 10:00:00 7.4 10 Norte 16 Nordeste 0 -- -- 78
2019-04-02 09:00:00 3.5 3 Norte 17 Norte 0 -- -- 94
2019-04-02 08:00:00 1.8 9 Norte 13 Norte 0 -- -- 94
2019-04-02 07:00:00 2 7 Norte 13 Norte 0 -- -- 95
2019-04-02 06:00:00 1.5 5 Norte 14 Norte 0 -- -- 95
2019-04-02 05:00:00 1.5 8 Norte 15 Norte 0 -- -- 95
2019-04-02 04:00:00 1.5 8 Norte 13 Norte 0 -- -- 94
2019-04-02 03:00:00 1.9 6 Norte 13 Norte 0 -- -- 94
2019-04-02 02:00:00 3 6 Norte 9 Norte 0 -- -- 92
2019-04-02 01:00:00 5.1 4 Norte 8 Norte 0 -- -- 92
2019-04-02 00:00:00 5.2 2 Norte 4 Norte 0.2 -- -- 91
2019-04-01 23:00:00 6.4 0 Calma 5 Noroeste 0 -- -- 88
2019-04-01 22:00:00 6.6 3 Noroeste 10 Norte 0 -- -- 87
2019-04-01 21:00:00 6.9 6 Noroeste 10 Noroeste 0 -- -- 88
2019-04-01 20:00:00 7.7 4 Norte 6 Norte 0 -- -- 82
2019-04-01 19:00:00 9 2 Norte 8 Nordeste 0 -- -- 78
2019-04-01 18:00:00 7.4 3 Nordeste 31 Oeste 1 -- -- 84
2019-04-01 17:00:00 10 2 Sur 9 Sur 0 -- -- 71
2019-04-01 16:00:00 9.3 6 Sur 14 Sur 0 -- -- 75
2019-04-01 15:00:00 8.9 9 Sur 18 Sudeste 0 -- -- 79
2019-04-01 14:00:00 7.4 10 Sur 19 Sur 0 -- -- 92
2019-04-01 13:00:00 5.8 6 Sur 12 Sur 0 -- -- 95
2019-04-01 12:00:00 4.8 6 Sur 10 Sur 0 -- -- 96
2019-04-01 11:00:00 4.2 4 Sudeste 9 Sur 0 -- -- 96
2019-04-01 10:00:00 3.9 4 Sudeste 11 Sur 0 -- -- 96
2019-04-01 09:00:00 3.9 3 Sur 6 Sur 0.2 -- -- 95
2019-04-01 08:00:00 3.8 3 Sudoeste 4 Sudoeste 0 -- -- 94
2019-04-01 07:00:00 3.6 0 Calma 3 Norte 0 -- -- 94
2019-04-01 06:00:00 3.5 0 Calma 2 Sudoeste 0 -- -- 94
2019-04-01 05:00:00 3.1 0 Calma 3 Noroeste 0.2 -- -- 95
2019-04-01 04:00:00 2.9 3 Norte 4 Norte 0.2 -- -- 94
2019-04-01 03:00:00 2.9 0 Calma 5 Oeste 0.2 -- -- 92
2019-04-01 02:00:00 2.8 3 Este 13 Este 0.2 -- -- 90
2019-04-01 01:00:00 2.6 3 Norte 5 Norte 0.2 -- -- 92
2019-04-01 00:00:00 2.6 3 Norte 6 Norte 0.6 -- -- 91
2019-03-31 23:00:00 2.8 4 Norte 12 Norte 1.2 -- -- 90
2019-03-31 22:00:00 3.5 2 Este 11 Nordeste 1 -- -- 87
2019-03-31 21:00:00 3.9 10 Este 21 Nordeste 0.2 -- -- 82
2019-03-31 20:00:00 5.3 5 Sudeste 17 Este 0 -- -- 76
2019-03-31 19:00:00 7.4 4 Sudoeste 19 Sudeste 0 -- -- 64
2019-03-31 18:00:00 8.5 11 Sur 27 Sur 0 -- -- 55
2019-03-31 17:00:00 9.5 12 Sudeste 26 Sudeste 0 -- -- 48
2019-03-31 16:00:00 10.9 14 Sur 27 Sudeste 0 -- -- 46
2019-03-31 15:00:00 12.5 14 Sur 25 Sur 0 -- -- 39
2019-03-31 14:00:00 12.8 16 Sur 25 Sur 0 -- -- 39
2019-03-31 13:00:00 11 13 Este 25 Este 0 -- -- 37
2019-03-31 12:00:00 11.4 8 Sur 20 Sudeste 0 -- -- 37
2019-03-31 11:00:00 9.7 4 Sur 14 Sur 0 -- -- 49
2019-03-31 10:00:00 7.1 3 Este 11 Norte 0 -- -- 54
2019-03-31 09:00:00 2.5 8 Norte 15 Norte 0 -- -- 69
2019-03-31 08:00:00 0.1 7 Norte 14 Norte 0 -- -- 75
2019-03-31 07:00:00 -0.4 9 Norte 14 Norte 0 -- -- 75
2019-03-31 06:00:00 -0.3 8 Norte 14 Norte 0 -- -- 74
2019-03-31 05:00:00 -0.4 8 Norte 15 Norte 0 -- -- 73
2019-03-31 03:00:00 0.2 9 Norte 13 Norte 0 -- -- 71
2019-03-31 01:00:00 0.3 10 Norte 13 Norte 0 -- -- 72
2019-03-31 00:00:00 0.7 8 Norte 12 Norte 0 -- -- 70
2019-03-30 23:00:00 1.5 11 Norte 14 Norte 0 -- -- 69
2019-03-30 22:00:00 2.2 9 Norte 13 Norte 0 -- -- 67
2019-03-30 21:00:00 4.7 6 Nordeste 12 Norte 0 -- -- 58
2019-03-30 20:00:00 7.2 4 Oeste 19 Este 0 -- -- 49
2019-03-30 19:00:00 9.9 12 Este 26 Sudeste 0 -- -- 43
2019-03-30 18:00:00 11.8 15 Sudeste 25 Sudeste 0 -- -- 39
2019-03-30 17:00:00 11.6 9 Sudeste 26 Sudeste 0 -- -- 39
2019-03-30 16:00:00 13.4 9 Sudeste 21 Sudeste 0 -- -- 33
2019-03-30 15:00:00 13.2 10 Sur 26 Sur 0 -- -- 35
2019-03-30 14:00:00 12.8 8 Sur 27 Sudeste 0 -- -- 41
2019-03-30 13:00:00 12.2 14 Sur 25 Sudeste 0 -- -- 43
2019-03-30 12:00:00 11.5 12 Sur 19 Sur 0 -- -- 44
2019-03-30 11:00:00 9.6 8 Sudeste 15 Sudeste 0 -- -- 52
2019-03-30 10:00:00 8.1 5 Sudeste 10 Sudeste 0 -- -- 52
2019-03-30 09:00:00 5.3 5 Sudeste 9 Sudeste 0 -- -- 63
2019-03-30 08:00:00 -0.6 6 Norte 11 Norte 0 -- -- 90
2019-03-30 07:00:00 -2.8 5 Norte 8 Norte 0 -- -- 91
2019-03-30 06:00:00 -2.7 4 Norte 9 Norte 0 -- -- 91
2019-03-30 05:00:00 -2.6 6 Norte 9 Norte 0 -- -- 89
2019-03-30 04:00:00 -2.1 5 Norte 9 Norte 0 -- -- 88
2019-03-30 03:00:00 -1.8 6 Norte 10 Norte 0 -- -- 86
2019-03-30 02:00:00 -1 7 Norte 10 Norte 0 -- -- 85
2019-03-30 01:00:00 -0.5 7 Norte 11 Norte 0 -- -- 83
2019-03-30 00:00:00 0.6 9 Norte 12 Norte 0 -- -- 78
2019-03-29 23:00:00 1.1 7 Norte 13 Norte 0 -- -- 73
2019-03-29 22:00:00 2.2 9 Norte 12 Norte 0 -- -- 67
2019-03-29 21:00:00 4 4 Norte 10 Sudoeste 0 -- -- 58
2019-03-29 20:00:00 8 6 Sudoeste 21 Sur 0 -- -- 45
2019-03-29 19:00:00 11.2 10 Sur 22 Sur 0 -- -- 32
2019-03-29 18:00:00 12.4 15 Sur 28 Sur 0 -- -- 32
2019-03-29 17:00:00 13.1 14 Sudeste 26 Sur 0 -- -- 33
2019-03-29 16:00:00 14.1 12 Sur 33 Sur 0 -- -- 29
2019-03-29 15:00:00 13.7 16 Sur 35 Sudeste 0 -- -- 35
2019-03-29 14:00:00 12.9 19 Sudeste 31 Sudeste 0 -- -- 38
2019-03-29 13:00:00 11.8 20 Sur 28 Sur 0 -- -- 39
2019-03-29 12:00:00 11 16 Sudeste 27 Sur 0 -- -- 43
2019-03-29 11:00:00 9.9 10 Sur 21 Sudeste 0 -- -- 45
2019-03-29 10:00:00 8 13 Sudeste 19 Sudeste 0 -- -- 48
2019-03-29 09:00:00 5.4 4 Sudeste 9 Sudeste 0 -- -- 61
2019-03-29 08:00:00 -0.4 7 Norte 12 Norte 0 -- -- 85
2019-03-29 07:00:00 -2.5 8 Norte 10 Norte 0 -- -- 91
2019-03-29 06:00:00 -2.3 6 Norte 8 Norte 0 -- -- 89
2019-03-29 05:00:00 -1.6 4 Norte 8 Norte 0 -- -- 87
2019-03-29 04:00:00 -1.5 5 Norte 10 Norte 0 -- -- 88
2019-03-29 03:00:00 -1.3 6 Norte 10 Norte 0 -- -- 85
2019-03-29 02:00:00 -0.3 9 Norte 11 Norte 0 -- -- 82
2019-03-29 01:00:00 0.5 6 Norte 11 Norte 0 -- -- 79
2019-03-29 00:00:00 1.5 9 Norte 12 Norte 0 -- -- 79
2019-03-28 23:00:00 2.8 9 Norte 19 Norte 0 -- -- 78
2019-03-28 22:00:00 4.6 11 Norte 16 Noroeste 0 -- -- 72
2019-03-28 21:00:00 5.1 11 Noroeste 18 Noroeste 0 -- -- 69
2019-03-28 20:00:00 6.5 12 Noroeste 19 Noroeste 0 -- -- 60
2019-03-28 19:00:00 9.6 11 Norte 26 Nordeste 0 -- -- 47
2019-03-28 18:00:00 12 12 Norte 24 Nordeste 0 -- -- 39
2019-03-28 17:00:00 13 13 Norte 24 Nordeste 0 -- -- 36
2019-03-28 16:00:00 13.3 16 Nordeste 31 Este 0 -- -- 34
2019-03-28 15:00:00 13.4 15 Nordeste 30 Nordeste 0 -- -- 31
2019-03-28 14:00:00 13.5 12 Nordeste 44 Norte 0 -- -- 35
2019-03-28 13:00:00 12.6 13 Este 23 Este 0 -- -- 38
2019-03-28 12:00:00 11.4 9 Nordeste 19 Este 0 -- -- 39
2019-03-28 11:00:00 9.7 10 Nordeste 21 Norte 0 -- -- 42
2019-03-28 10:00:00 8.3 10 Norte 21 Norte 0 -- -- 46
2019-03-28 09:00:00 6.3 13 Noroeste 27 Norte 0 -- -- 49
2019-03-28 08:00:00 4.2 9 Norte 19 Noroeste 0 -- -- 54
2019-03-28 07:00:00 3.1 11 Norte 39 Noroeste 0 -- -- 57
2019-03-28 06:00:00 2.5 19 Noroeste 35 Noroeste 0 -- -- 60
2019-03-28 05:00:00 3.4 18 Noroeste 46 Norte 0 -- -- 55
2019-03-28 04:00:00 3.7 27 Oeste 43 Noroeste 0 -- -- 49
2019-03-28 03:00:00 3.1 25 Noroeste 39 Noroeste 0 -- -- 55
2019-03-28 02:00:00 3.6 22 Noroeste 38 Noroeste 0 -- -- 53
2019-03-28 01:00:00 3.4 22 Noroeste 49 Oeste 0 -- -- 53
2019-03-28 00:00:00 3.3 26 Noroeste 46 Norte 0 -- -- 53
2019-03-27 23:00:00 3.3 24 Norte 46 Norte 0 -- -- 51
2019-03-27 22:00:00 3.2 32 Norte 52 Norte 0 -- -- 61
2019-03-27 21:00:00 4.3 29 Norte 51 Norte 0 -- -- 52
2019-03-27 20:00:00 5.8 31 Norte 55 Noroeste 0 -- -- 47
2019-03-27 19:00:00 7.8 28 Norte 48 Norte 0 -- -- 41
2019-03-27 18:00:00 10.8 23 Norte 47 Norte 0 -- -- 30
2019-03-27 17:00:00 11.5 31 Norte 46 Norte 0 -- -- 29
2019-03-27 16:00:00 12 22 Norte 43 Norte 0 -- -- 29
2019-03-27 15:00:00 12.1 27 Norte 49 Norte 0 -- -- 25
2019-03-27 14:00:00 12.1 25 Norte 39 Norte 0 -- -- 25
2019-03-27 13:00:00 12.2 19 Norte 42 Nordeste 0 -- -- 23
2019-03-27 12:00:00 11.1 20 Nordeste 42 Norte 0 -- -- 22
2019-03-27 11:00:00 9.8 18 Nordeste 36 Nordeste 0 -- -- 20
2019-03-27 10:00:00 8.8 14 Nordeste 30 Norte 0 -- -- 20
2019-03-27 09:00:00 7 10 Noroeste 23 Norte 0 -- -- 28
2019-03-27 08:00:00 4.4 14 Noroeste 26 Noroeste 0 -- -- 33
2019-03-27 07:00:00 1.5 11 Noroeste 18 Noroeste 0 -- -- 37
2019-03-27 06:00:00 2 10 Norte 26 Noroeste 0 -- -- 39
2019-03-27 05:00:00 1.3 18 Noroeste 26 Norte 0 -- -- 42
2019-03-27 04:00:00 1.4 13 Norte 21 Norte 0 -- -- 43
2019-03-27 03:00:00 2.4 12 Norte 33 Norte 0 -- -- 39
2019-03-27 02:00:00 2.5 19 Norte 41 Norte 0 -- -- 41
2019-03-27 01:00:00 2.6 24 Norte 37 Norte 0 -- -- 41
2019-03-27 00:00:00 1.9 22 Noroeste 37 Norte 0 -- -- 46